^^
Station Historical Data
Daily Summary for February 15, 2018 Units:  English    Metric   Both
« Previous Day
Next Day »
Daily Weekly Monthly Yearly Custom
  High: Low: Average:
Temperature: TemperatureF °F 42.6 °F 49 °F
Dew Point: DewpointF °F 40.9 °F 46.5 °F
Humidity: Humidity% 81% 90%
Wind Speed: WindSpeedMPHmph 0.0mph 1.3mph
Wind Gust: WindSpeedGustMPHmph - -
Wind- - SSW
Pressure: PressureIn in 29.67 in -
Precipitation: 0.00 in    
Historical Graphs
 
 
Tabular Data for February 15, 2018
Time Temperature Dew Point Pressure Wind Wind Speed Wind Gust Humidity Rainfall Rate (Hourly) Conditions
TemperatureF °F DewpointF °F PressureIn in Calm     Humidity% HourlyPrecipIn in Conditions
00:09 43.9 °F 40.9 °F 30.06 in SSW 1.0 mph 8.0 mph 89% 0.00 in RA
00:19 43.6 °F 41.1 °F 30.05 in SSW 1.0 mph 4.0 mph 91% 0.02 in RA
00:29 43.5 °F 41.0 °F 30.05 in South 1.0 mph 5.0 mph 91% 0.00 in
00:39 43.5 °F 41.0 °F 30.05 in South 1.0 mph 3.0 mph 91% 0.00 in
00:49 43.5 °F 41.3 °F 30.04 in SE 1.0 mph 3.0 mph 92% 0.00 in
00:59 43.5 °F 41.3 °F 30.03 in SSE 1.0 mph 4.0 mph 92% 0.00 in
01:09 43.5 °F 41.3 °F 30.03 in South 2.0 mph 5.0 mph 92% 0.00 in
01:19 43.6 °F 41.4 °F 30.03 in SSE 2.0 mph 3.0 mph 92% 0.00 in
01:29 43.6 °F 41.4 °F 30.02 in Calm   2.0 mph 92% 0.00 in
01:39 43.6 °F 41.4 °F 30.02 in SSE 1.0 mph 3.0 mph 92% 0.00 in
01:49 43.6 °F 41.4 °F 30.02 in SSE 1.0 mph 7.0 mph 92% 0.00 in
01:59 43.6 °F 41.4 °F 30.02 in South 2.0 mph 6.0 mph 92% 0.01 in RA
02:09 43.6 °F 41.4 °F 30.01 in SSE 1.0 mph 5.0 mph 92% 0.00 in
02:19 43.7 °F 41.5 °F 30.01 in Calm   5.0 mph 92% 0.00 in
02:29 43.6 °F 41.4 °F 30.00 in Calm   3.0 mph 92% 0.00 in
02:49 43.5 °F 41.6 °F 29.99 in Calm   2.0 mph 93% 0.01 in RA
02:59 43.4 °F 41.5 °F 29.99 in Calm   2.0 mph 93% 0.01 in RA
03:09 43.3 °F 41.7 °F 29.98 in Calm   1.0 mph 94% 0.01 in RA
03:19 43.3 °F 41.7 °F 29.98 in Calm   1.0 mph 94% 0.00 in
03:29 43.2 °F 41.6 °F 29.98 in Calm   2.0 mph 94% 0.00 in
03:39 43.1 °F 41.5 °F 29.98 in Calm   1.0 mph 94% 0.00 in
03:49 43.1 °F 41.5 °F 29.98 in Calm     94% 0.00 in
03:59 43.1 °F 41.8 °F 29.98 in Calm     95% 0.00 in
04:09 43.0 °F 41.7 °F 29.97 in Calm     95% 0.00 in
04:19 43.0 °F 41.7 °F 29.97 in Calm   2.0 mph 95% 0.00 in
04:29 42.9 °F 41.6 °F 29.98 in Calm   2.0 mph 95% 0.00 in
04:39 42.9 °F 41.6 °F 29.97 in SSW 1.0 mph 2.0 mph 95% 0.00 in
04:49 42.9 °F 41.6 °F 29.97 in Calm   3.0 mph 95% 0.00 in
04:59 43.0 °F 41.7 °F 29.96 in South 1.0 mph 5.0 mph 95% 0.00 in
05:09 43.0 °F 41.7 °F 29.96 in SSW 1.0 mph 3.0 mph 95% 0.00 in
05:19 43.0 °F 41.7 °F 29.95 in Calm   3.0 mph 95% 0.00 in
05:29 42.9 °F 41.6 °F 29.95 in Calm   2.0 mph 95% 0.00 in
05:39 42.8 °F 41.5 °F 29.95 in Calm   2.0 mph 95% 0.00 in
05:49 42.8 °F 41.5 °F 29.95 in Calm   1.0 mph 95% 0.00 in
05:59 42.7 °F 41.6 °F 29.95 in Calm   2.0 mph 96% 0.00 in
06:09 42.6 °F 41.5 °F 29.95 in Calm   2.0 mph 96% 0.00 in
06:19 42.6 °F 41.5 °F 29.95 in South 1.0 mph 4.0 mph 96% 0.00 in
06:29 42.7 °F 41.6 °F 29.95 in SW 1.0 mph 5.0 mph 96% 0.00 in
06:39 42.8 °F 41.7 °F 29.94 in SSW 1.0 mph 4.0 mph 96% 0.00 in
06:49 43.0 °F 41.9 °F 29.94 in SW 1.0 mph 6.0 mph 96% 0.00 in
06:59 43.0 °F 41.9 °F 29.93 in SSW 1.0 mph 3.0 mph 96% 0.00 in
07:20 43.2 °F 42.2 °F 29.94 in Calm   2.0 mph 96% 0.00 in -RA
07:30 43.3 °F 42.2 °F 29.94 in South 1.0 mph 3.0 mph 96% 0.00 in -RA
07:39 43.4 °F 42.3 °F 29.93 in SSW 1.0 mph 4.0 mph 96% 0.00 in -RA
07:50 43.5 °F 42.4 °F 29.94 in SW 3.0 mph 6.0 mph 96% 0.00 in -RA
08:00 43.8 °F 42.7 °F 29.93 in SSW 1.0 mph 8.0 mph 96% 0.00 in -RA
08:09 43.9 °F 42.8 °F 29.92 in South 1.0 mph 4.0 mph 96% 0.00 in BKN
08:20 44.2 °F 43.1 °F 29.93 in South 1.0 mph 2.0 mph 96% 0.00 in BKN
08:30 44.4 °F 43.3 °F 29.94 in SSW 2.0 mph 5.0 mph 96% 0.00 in BKN
08:39 44.5 °F 43.4 °F 29.94 in SW 1.0 mph 6.0 mph 96% 0.00 in BKN
08:50 44.7 °F 43.7 °F 29.93 in SSW 2.0 mph 7.0 mph 96% 0.00 in BKN
08:59 45.0 °F 43.7 °F 29.92 in Calm   7.0 mph 95% 0.00 in BKN
09:10 45.2 °F 43.9 °F 29.92 in Calm   6.0 mph 95% 0.00 in BKN
09:20 45.3 °F 44.0 °F 29.91 in SSE 1.0 mph 5.0 mph 95% 0.00 in BKN
09:29 45.7 °F 44.4 °F 29.92 in SW 1.0 mph 4.0 mph 95% 0.00 in BKN
09:39 45.8 °F 44.4 °F 29.92 in SW 2.0 mph 7.0 mph 95% 0.00 in BKN
09:49 45.9 °F 44.5 °F 29.91 in SSW 3.0 mph 6.0 mph 95% 0.00 in BKN
09:59 45.9 °F 44.3 °F 29.91 in SW 1.0 mph 7.0 mph 94% 0.00 in BKN
10:10 45.9 °F 44.5 °F 29.91 in SSW 1.0 mph 8.0 mph 95% 0.00 in BKN
10:19 46.0 °F 44.6 °F 29.91 in SSW 2.0 mph 7.0 mph 95% 0.00 in BKN
10:30 46.2 °F 44.8 °F 29.92 in SW 5.0 mph 10.0 mph 95% 0.00 in BKN
10:40 46.5 °F 45.1 °F 29.90 in SSW 5.0 mph 8.0 mph 95% 0.00 in BKN
10:50 47.0 °F 45.6 °F 29.90 in SSW 1.0 mph 7.0 mph 95% 0.00 in BKN
10:59 47.5 °F 45.9 °F 29.89 in SSW 3.0 mph 8.0 mph 94% 0.00 in BKN
11:09 48.2 °F 46.6 °F 29.89 in Calm   4.0 mph 94% 0.00 in BKN
11:20 49.0 °F 47.0 °F 29.88 in South 1.0 mph 6.0 mph 93% 0.00 in BKN
11:30 49.7 °F 47.2 °F 29.88 in SSW 2.0 mph 5.0 mph 91% 0.00 in BKN
11:39 50.2 °F 47.4 °F 29.88 in SSW 2.0 mph 8.0 mph 90% 0.00 in BKN
11:50 50.0 °F 47.2 °F 29.88 in South 3.0 mph 9.0 mph 90% 0.00 in BKN
12:00 49.9 °F 47.1 °F 29.87 in SSW 3.0 mph 8.0 mph 90% 0.00 in BKN
12:09 50.1 °F 47.3 °F 29.86 in SSW 5.0 mph 9.0 mph 90% 0.00 in BKN
12:20 50.3 °F 47.5 °F 29.86 in SSW 3.0 mph 10.0 mph 90% 0.00 in BKN
12:29 50.6 °F 47.5 °F 29.85 in SW 3.0 mph 8.0 mph 89% 0.00 in BKN
12:39 50.9 °F 47.8 °F 29.85 in SSW 5.0 mph 7.0 mph 89% 0.00 in BKN
12:50 51.2 °F 48.1 °F 29.84 in SSW 2.0 mph 8.0 mph 89% 0.00 in BKN
12:59 51.6 °F 48.2 °F 29.84 in SW 3.0 mph 7.0 mph 88% 0.00 in BKN
13:10 51.6 °F 48.2 °F 29.83 in SSW 3.0 mph 8.0 mph 88% 0.00 in SCT
13:19 51.7 °F 48.3 °F 29.83 in South 1.0 mph 5.0 mph 88% 0.00 in SCT
13:29 51.7 °F 48.3 °F 29.83 in SSW 2.0 mph 8.0 mph 88% 0.00 in SCT
13:39 52.2 °F 48.8 °F 29.82 in SSW 3.0 mph 8.0 mph 88% 0.00 in SCT
13:49 52.7 °F 48.9 °F 29.81 in SSW 5.0 mph 12.0 mph 87% 0.00 in SCT
13:59 53.2 °F 49.1 °F 29.80 in SSW 3.0 mph 12.0 mph 86% 0.00 in SCT
14:09 53.6 °F 49.5 °F 29.79 in SSW 6.0 mph 9.0 mph 86% 0.00 in SCT
14:19 54.1 °F 50.0 °F 29.79 in SSW 5.0 mph 9.0 mph 86% 0.00 in SCT
14:29 54.5 °F 50.1 °F 29.79 in SSW 5.0 mph 13.0 mph 85% 0.00 in SCT
14:39 54.9 °F 50.2 °F 29.78 in SSW 6.0 mph 9.0 mph 84% 0.00 in SCT
14:49 55.2 °F 50.4 °F 29.78 in SSW 3.0 mph 8.0 mph 84% 0.00 in SCT
14:59 55.3 °F 50.5 °F 29.78 in SSW 3.0 mph 9.0 mph 84% 0.00 in SCT
15:10 55.2 °F 50.4 °F 29.78 in SSW 2.0 mph 12.0 mph 84% 0.00 in FEW
15:20 55.3 °F 50.5 °F 29.78 in SW 2.0 mph 10.0 mph 84% 0.00 in FEW
15:30 55.4 °F 50.6 °F 29.78 in South 2.0 mph 7.0 mph 84% 0.00 in FEW
15:40 55.6 °F 50.8 °F 29.78 in Calm   5.0 mph 84% 0.00 in FEW
15:50 55.8 °F 51.0 °F 29.78 in Calm   4.0 mph 84% 0.00 in FEW
15:59 55.9 °F 50.8 °F 29.78 in Calm   4.0 mph 83% 0.00 in FEW
16:20 55.9 °F 50.8 °F 29.77 in SSE 3.0 mph 6.0 mph 83% 0.00 in CLR
16:30 56.6 °F 51.8 °F 29.77 in SSW 1.0 mph 3.0 mph 84% 0.00 in CLR
16:39 57.4 °F 51.6 °F 29.77 in South 2.0 mph 8.0 mph 81% 0.00 in CLR
16:49 57.6 °F 51.8 °F 29.77 in SSW 2.0 mph 9.0 mph 81% 0.00 in CLR
16:59 57.6 °F 51.8 °F 29.77 in Calm   7.0 mph 81% 0.00 in CLR
17:09 57.3 °F 51.9 °F 29.77 in South 2.0 mph 5.0 mph 82% 0.00 in CLR
17:20 56.6 °F 51.5 °F 29.77 in SSE 3.0 mph 5.0 mph 83% 0.00 in CLR
17:29 55.9 °F 51.2 °F 29.77 in SSE 2.0 mph 5.0 mph 84% 0.00 in CLR
17:39 55.4 °F 51.0 °F 29.77 in South 2.0 mph 5.0 mph 85% 0.00 in CLR
17:50 55.0 °F 50.9 °F 29.77 in SSE 1.0 mph 3.0 mph 86% 0.00 in CLR
18:00 54.8 °F 50.7 °F 29.76 in Calm   3.0 mph 86% 0.00 in CLR
18:09 54.5 °F 50.7 °F 29.76 in Calm   2.0 mph 87% 0.00 in CLR
18:19 53.9 °F 50.1 °F 29.76 in Calm   3.0 mph 87% 0.00 in CLR
18:29 53.2 °F 50.0 °F 29.76 in SSW 1.0 mph 3.0 mph 89% 0.00 in CLR
18:39 53.6 °F 50.7 °F 29.77 in Calm   3.0 mph 90% 0.00 in CLR
18:49 54.1 °F 51.2 °F 29.77 in Calm   2.0 mph 90% 0.00 in CLR
19:00 54.4 °F 51.2 °F 29.76 in South 1.0 mph 2.0 mph 89% 0.00 in CLR
19:09 54.2 °F 51.1 °F 29.76 in Calm   3.0 mph 89% 0.00 in CLR
19:19 54.1 °F 50.9 °F 29.77 in Calm   1.0 mph 89% 0.00 in CLR
19:29 54.2 °F 51.3 °F 29.76 in Calm   2.0 mph 90% 0.00 in CLR
19:40 54.6 °F 51.7 °F 29.76 in Calm   3.0 mph 90% 0.00 in CLR
19:50 54.6 °F 51.4 °F 29.75 in Calm   1.0 mph 89% 0.00 in CLR
19:59 54.6 °F 51.4 °F 29.75 in Calm   1.0 mph 89% 0.00 in CLR
20:09 54.6 °F 51.4 °F 29.74 in Calm   1.0 mph 89% 0.00 in CLR
20:20 54.8 °F 51.6 °F 29.74 in Calm   2.0 mph 89% 0.00 in CLR
20:29 55.2 °F 51.7 °F 29.74 in Calm   4.0 mph 88% 0.00 in CLR
20:39 55.3 °F 51.8 °F 29.73 in Calm   4.0 mph 88% 0.00 in CLR
20:49 55.3 °F 51.5 °F 29.74 in South 1.0 mph 3.0 mph 87% 0.00 in CLR
20:59 54.9 °F 51.4 °F 29.74 in South 1.0 mph 4.0 mph 88% 0.00 in CLR
21:09 54.8 °F 51.3 °F 29.74 in Calm   3.0 mph 88% 0.00 in BKN
21:19 55.0 °F 51.5 °F 29.74 in SSW 1.0 mph 4.0 mph 88% 0.00 in BKN
21:30 55.0 °F 51.5 °F 29.74 in SSW 1.0 mph 3.0 mph 88% 0.00 in BKN
21:39 54.6 °F 51.4 °F 29.73 in South 2.0 mph 6.0 mph 89% 0.00 in BKN
21:50 54.3 °F 51.4 °F 29.72 in Calm   5.0 mph 90% 0.01 in RA
21:59 54.2 °F 51.6 °F 29.71 in Calm   3.0 mph 91% 0.00 in BKN
22:09 53.9 °F 51.3 °F 29.70 in Calm   1.0 mph 91% 0.00 in -RA
22:20 53.8 °F 51.5 °F 29.69 in Calm   2.0 mph 92% 0.00 in -RA
22:29 53.7 °F 51.7 °F 29.69 in Calm   1.0 mph 93% 0.02 in -RA
22:40 53.6 °F 51.9 °F 29.69 in South 1.0 mph 6.0 mph 94% 0.00 in -RA
22:50 53.7 °F 52.3 °F 29.69 in South 1.0 mph 5.0 mph 95% 0.00 in -RA
22:59 53.8 °F 52.4 °F 29.68 in SSE 1.0 mph 4.0 mph 95% 0.00 in -RA
23:09 53.9 °F 52.5 °F 29.68 in South 3.0 mph 6.0 mph 95% 0.01 in -RA
23:19 54.2 °F 52.8 °F 29.68 in South 2.0 mph 6.0 mph 95% 0.00 in -RA
23:29 54.3 °F 52.9 °F 29.68 in South 1.0 mph 5.0 mph 95% 0.01 in -RA
23:39 54.4 °F 53.0 °F 29.67 in SSE 2.0 mph 5.0 mph 95% 0.00 in -RA
23:49 54.3 °F 52.9 °F 29.67 in SSW 1.0 mph 5.0 mph 95% 0.00 in -RA
23:59 54.3 °F 52.9 °F 29.67 in Calm   4.0 mph 95% 0.00 in -RA
TarryTown NY Weather
Compliments of Weather Underground - 1.75 mb